Time;durP1;ratioP1;P1;durP2;ratioP2;P2;SDS_P1;SDS_P2;PMS_P1;PMS_P2;Temp;Humidity;BMP_temperature;BMP_pressure;BME280_temperature;BME280_humidity;BME280_pressure;Samples;Min_cycle;Max_cycle;Signal;HPM_P1;HPM_P2
2022/11/26 00:00:07;;;;;;;;;;;;;;;;;;;;;
2022/11/26 00:02:33;;;;;;;5.87;4.08;;;;;;;4.08;77.53;100781.29;1679075;85;21131;-71
2022/11/26 00:05:04;;;;;;;5.75;3.85;;;;;;;4.11;77.45;100775.07;1680453;85;21195;-71
2022/11/26 00:07:51;;;;;;;5.70;3.70;;;;;;;4.16;77.43;100779.75;1682942;83;21035;-71
2022/11/26 00:10:31;;;;;;;8.43;4.42;;;;;;;3.94;78.05;100776.55;1681149;85;21064;-71
2022/11/26 00:13:01;;;;;;;5.80;3.65;;;;;;;3.88;78.28;100779.55;1678012;83;21095;-72
2022/11/26 00:15:34;;;;;;;6.95;4.03;;;;;;;3.89;78.14;100776.39;1668655;83;21057;-71
2022/11/26 00:18:18;;;;;;;;;;;;;;;;;;;;;
2022/11/26 00:20:46;;;;;;;7.50;4.03;;;;;;;3.86;78.47;100784.20;1672105;83;21037;-71
2022/11/26 00:23:33;;;;;;;5.85;3.70;;;;;;;4.02;77.89;100778.19;1650134;85;21033;-71
2022/11/26 00:26:05;;;;;;;5.37;3.67;;;;;;;4.05;77.72;100781.22;1676487;85;21152;-72
2022/11/26 00:28:46;;;;;;;6.12;3.75;;;;;;;4.07;77.72;100781.00;1678936;83;21025;-70
2022/11/26 00:31:38;;;;;;;6.08;3.87;;;;;;;4.09;77.66;100777.65;1674810;84;20995;-70
2022/11/26 00:33:58;;;;;;;6.65;3.67;;;;;;;4.09;77.60;100777.65;1660699;86;21014;-73
2022/11/26 00:36:32;;;;;;;7.08;3.83;;;;;;;4.10;77.59;100778.74;1667876;86;20987;-72
2022/11/26 00:39:11;;;;;;;6.30;4.00;;;;;;;4.09;77.58;100778.45;1682404;85;21055;-71
2022/11/26 00:41:50;;;;;;;7.37;4.03;;;;;;;4.11;77.57;100779.03;1688723;84;21177;-71
2022/11/26 00:44:30;;;;;;;5.65;3.60;;;;;;;4.12;77.55;100787.80;1682654;85;22048;-73
2022/11/26 00:46:56;;;;;;;5.65;3.50;;;;;;;4.12;77.54;100785.97;1679149;85;22393;-72
2022/11/26 00:49:33;;;;;;;5.60;3.50;;;;;;;4.13;77.53;100790.74;1649949;85;21091;-72
2022/11/26 00:54:37;;;;;;;6.22;3.58;;;;;;;3.91;78.21;100785.70;1616254;88;21058;-72
2022/11/26 00:57:10;;;;;;;5.45;3.47;;;;;;;4.15;77.71;100780.78;1642230;85;21162;-72
2022/11/26 00:59:40;;;;;;;5.62;3.22;;;;;;;4.16;77.59;100785.84;1655700;86;21071;-72
2022/11/26 01:02:12;;;;;;;6.60;3.60;;;;;;;4.20;77.52;100788.88;1656692;85;21111;-72
2022/11/26 01:04:46;;;;;;;6.10;3.40;;;;;;;4.20;77.48;100791.52;1662485;84;21500;-72
2022/11/26 01:07:16;;;;;;;7.45;3.37;;;;;;;4.20;77.48;100787.05;1677641;85;21071;-71
2022/11/26 01:09:53;;;;;;;6.03;3.55;;;;;;;4.19;77.42;100785.95;1626730;85;21147;-72
2022/11/26 01:12:28;;;;;;;5.42;3.22;;;;;;;4.19;77.41;100778.02;1672585;83;21000;-71
2022/11/26 01:14:58;;;;;;;5.62;3.00;;;;;;;4.18;77.42;100781.17;1668477;85;22320;-71
2022/11/26 01:17:39;;;;;;;6.00;3.12;;;;;;;4.16;77.39;100775.27;1637876;86;20976;-71
2022/11/26 01:20:16;;;;;;;5.83;3.55;;;;;;;4.18;77.40;100785.66;1664444;85;21106;-71
2022/11/26 01:22:52;;;;;;;5.80;3.47;;;;;;;4.18;77.39;100781.69;1680425;85;22012;-71
2022/11/26 01:25:45;;;;;;;;;;;;;;;;;;;;;
2022/11/26 01:27:54;;;;;;;5.92;3.22;;;;;;;4.19;77.44;100780.66;1660769;85;21205;-70
2022/11/26 01:30:37;;;;;;;5.67;3.55;;;;;;;4.22;77.46;100781.56;1665056;85;21015;-71
2022/11/26 01:33:11;;;;;;;6.20;3.47;;;;;;;4.21;77.42;100773.31;1651844;86;21030;-71
2022/11/26 01:35:44;;;;;;;6.03;3.37;;;;;;;4.21;77.42;100779.92;1662865;84;20968;-71
2022/11/26 01:38:19;;;;;;;;;;;;;;;4.18;77.36;100783.01;1656701;84;21063;-70
2022/11/26 01:41:23;;;;;;;5.37;2.80;;;;;;;4.17;77.36;100778.72;1671214;84;20482;-71
2022/11/26 01:43:55;;;;;;;5.70;3.17;;;;;;;4.15;77.43;100772.33;1641943;86;21054;-71
2022/11/26 01:46:31;;;;;;;6.20;3.33;;;;;;;4.18;77.51;100783.01;1674110;85;21090;-71
2022/11/26 01:49:12;;;;;;;5.50;3.10;;;;;;;4.21;77.49;100785.20;1656290;85;21043;-71
2022/11/26 01:51:51;;;;;;;5.75;3.10;;;;;;;4.26;77.50;100789.89;1648664;86;21020;-71
2022/11/26 01:54:21;;;;;;;5.53;3.08;;;;;;;4.27;77.46;100785.70;1666023;85;21715;-71
2022/11/26 01:57:06;;;;;;;;;;;;;;;;;;;;;
2022/11/26 01:59:35;;;;;;;5.35;3.10;;;;;;;4.31;77.34;100794.86;1574510;88;21116;-71
2022/11/26 02:02:17;;;;;;;5.45;2.92;;;;;;;4.32;77.31;100792.50;1561820;90;21577;-71
2022/11/26 02:04:47;;;;;;;5.20;2.92;;;;;;;4.29;77.23;100792.92;1599977;88;21698;-72
2022/11/26 02:07:22;;;;;;;5.47;3.02;;;;;;;4.28;77.21;100791.30;1662948;84;21055;-72
2022/11/26 02:09:57;;;;;;;5.95;3.08;;;;;;;4.29;77.17;100788.95;1662352;86;21525;-71
2022/11/26 02:12:31;;;;;;;5.60;2.67;;;;;;;4.26;77.09;100794.66;1662553;85;21060;-70
2022/11/26 02:15:06;;;;;;;5.45;3.00;;;;;;;4.25;77.13;100797.02;1664994;85;21104;-70
2022/11/26 02:17:55;;;;;;;;;;;;;;;;;;;;;
2022/11/26 02:20:58;;;;;;;;;;;;;;;;;;;;;
2022/11/26 02:23:45;;;;;;;4.87;2.55;;;;;;;4.34;77.15;100807.63;1683650;85;21103;-71
2022/11/26 02:26:30;;;;;;;5.97;3.15;;;;;;;4.38;77.06;100819.95;1650563;85;21019;-71
2022/11/26 02:29:18;;;;;;;5.42;2.85;;;;;;;4.39;77.06;100818.41;1662139;85;21549;-71
2022/11/26 02:32:23;;;;;;;5.53;3.10;;;;;;;4.39;76.97;100826.86;1683078;85;20988;-71
2022/11/26 02:34:57;;;;;;;5.00;2.80;;;;;;;4.38;76.86;100825.23;1671352;85;21094;-71
2022/11/26 02:37:45;;;;;;;6.20;3.22;;;;;;;4.33;76.76;100832.46;1647820;85;21023;-72
2022/11/26 02:40:28;;;;;;;6.60;3.10;;;;;;;4.33;76.81;100840.39;1673039;85;20991;-72
2022/11/26 02:42:55;;;;;;;5.05;2.92;;;;;;;4.34;76.84;100840.69;1671651;84;20971;-72
2022/11/26 02:45:33;;;;;;;5.05;3.02;;;;;;;4.34;76.87;100844.66;1657940;85;20966;-72
2022/11/26 02:48:07;;;;;;;5.90;3.20;;;;;;;4.37;76.86;100840.78;1658449;86;21106;-72
2022/11/26 02:50:46;;;;;;;5.08;2.85;;;;;;;4.38;76.80;100841.11;1660440;86;20971;-71
2022/11/26 02:53:18;;;;;;;5.17;2.95;;;;;;;4.36;76.76;100841.30;1626309;87;21084;-72
2022/11/26 02:55:54;;;;;;;4.53;2.80;;;;;;;4.37;76.72;100845.56;1673886;85;21064;-72
2022/11/26 02:58:25;;;;;;;5.25;3.12;;;;;;;4.35;76.73;100837.05;1671584;85;21026;-72
2022/11/26 03:00:56;;;;;;;4.90;3.00;;;;;;;4.36;76.74;100839.17;1673513;84;21037;-72
2022/11/26 03:03:32;;;;;;;5.50;2.87;;;;;;;4.35;76.67;100841.01;1699549;84;21035;-72
2022/11/26 03:06:06;;;;;;;5.45;3.02;;;;;;;4.35;76.63;100846.30;1668480;86;21500;-72
2022/11/26 03:08:46;;;;;;;4.70;3.10;;;;;;;4.35;76.63;100846.30;1666427;85;21058;-71
2022/11/26 03:11:19;;;;;;;4.67;2.87;;;;;;;4.36;76.67;100846.59;1671269;85;21615;-72
2022/11/26 03:14:01;;;;;;;;;;;;;;;;;;;;;
2022/11/26 03:16:28;;;;;;;5.53;3.20;;;;;;;4.41;76.62;100852.08;1683409;85;21520;-71
2022/11/26 03:19:08;;;;;;;4.35;2.40;;;;;;;4.43;76.61;100847.37;1672516;84;21098;-71
2022/11/26 03:21:49;;;;;;;4.50;2.60;;;;;;;4.43;76.56;100848.70;1655145;86;21633;-72
2022/11/26 03:24:18;;;;;;;4.65;2.95;;;;;;;4.43;76.52;100843.41;1643181;87;21008;-72
2022/11/26 03:26:52;;;;;;;4.75;2.70;;;;;;;4.40;76.49;100844.34;1645492;86;21028;-72
2022/11/26 03:29:26;;;;;;;;;;;;;;;4.40;76.46;100845.66;1675611;84;21545;-71
2022/11/26 03:32:10;;;;;;;5.10;3.05;;;;;;;4.39;76.48;100848.02;1674226;85;20176;-72
2022/11/26 03:34:44;;;;;;;4.00;2.50;;;;;;;4.40;76.50;100847.79;1652299;86;21451;-71
2022/11/26 03:37:09;;;;;;;5.22;3.00;;;;;;;4.40;76.41;100853.08;1676605;84;21098;-71
2022/11/26 03:39:43;;;;;;;4.85;2.80;;;;;;;4.37;76.39;100850.05;1663395;86;21547;-71
2022/11/26 03:42:25;;;;;;;;;;;;;;;;;;;;;
2022/11/26 03:44:56;;;;;;;6.80;3.58;;;;;;;4.34;76.38;100861.03;1660658;86;21063;-71
2022/11/26 03:47:38;;;;;;;;;;;;;;;;;;;;;
2022/11/26 03:50:10;;;;;;;6.58;4.12;;;;;;;4.34;76.46;100865.81;1654068;86;21545;-71
2022/11/26 03:52:43;;;;;;;7.12;4.90;;;;;;;4.33;76.42;100864.19;1656163;85;21137;-71
2022/11/26 03:55:22;;;;;;;7.40;4.75;;;;;;;4.39;76.46;100867.84;1629808;85;21106;-71
2022/11/26 03:57:49;;;;;;;7.87;4.97;;;;;;;4.39;76.45;100871.30;1656453;86;21086;-71
2022/11/26 04:00:24;;;;;;;6.72;3.85;;;;;;;4.38;76.41;100872.84;1648724;85;21339;-70
2022/11/26 04:02:59;;;;;;;7.28;4.75;;;;;;;4.38;76.43;100872.84;1653622;85;21224;-71
2022/11/26 04:05:29;;;;;;;7.72;4.35;;;;;;;4.37;76.43;100877.81;1655055;85;21039;-71
2022/11/26 04:08:21;;;;;;;;;;;;;;;;;;;;;
2022/11/26 04:10:47;;;;;;;6.47;3.30;;;;;;;4.33;76.47;100876.09;1677215;84;20951;-71
2022/11/26 04:13:36;;;;;;;;;;;;;;;;;;;;;
2022/11/26 04:16:02;;;;;;;11.85;4.30;;;;;;;4.31;76.51;100880.80;1683505;85;21010;-70
2022/11/26 04:18:36;;;;;;;8.75;3.75;;;;;;;4.32;76.59;100881.09;1673890;85;21085;-71
2022/11/26 04:21:08;;;;;;;11.03;4.20;;;;;;;4.34;76.63;100875.06;1657004;86;21106;-71
2022/11/26 04:23:36;;;;;;;9.70;4.08;;;;;;;4.37;76.62;100880.45;1660847;85;20978;-71
2022/11/26 04:26:18;;;;;;;9.15;4.33;;;;;;;4.36;76.63;100879.64;1670872;85;20936;-70
2022/11/26 04:28:57;;;;;;;9.93;4.50;;;;;;;4.38;76.74;100882.10;1633351;87;21126;-70
2022/11/26 04:31:22;;;;;;;11.68;4.72;;;;;;;4.40;76.69;100880.84;1631795;85;21035;-71
2022/11/26 04:34:03;;;;;;;10.08;4.42;;;;;;;4.41;76.69;100879.85;1661860;85;21081;-70
2022/11/26 04:36:43;;;;;;;8.50;3.80;;;;;;;4.41;76.65;100879.85;1638802;87;21009;-70
2022/11/26 04:39:07;;;;;;;9.80;3.85;;;;;;;4.40;76.59;100886.66;1670835;85;21173;-70
2022/11/26 04:41:51;;;;;;;10.30;4.17;;;;;;;4.37;76.55;100891.84;1674024;84;21035;-70
2022/11/26 04:44:21;;;;;;;12.82;4.78;;;;;;;4.39;76.61;100891.13;1673476;84;21042;-70
2022/11/26 04:58:53;;;;;;;11.03;4.20;;;;;;;5.05;76.56;100905.94;1764340;80;22832;-65
2022/11/26 05:01:20;;;;;;;8.75;4.05;;;;;;;5.00;76.31;100911.07;1790752;80;20962;-66
2022/11/26 05:03:47;;;;;;;10.03;4.83;;;;;;;4.97;76.27;100915.95;1782935;80;21144;-65
2022/11/26 05:06:15;;;;;;;10.60;4.70;;;;;;;4.96;76.23;100919.63;1765230;80;20871;-65
2022/11/26 05:08:41;;;;;;;11.45;4.67;;;;;;;4.92;76.12;100923.21;1759089;81;20970;-65
2022/11/26 05:11:08;;;;;;;12.13;4.72;;;;;;;4.90;76.04;100926.56;1759762;81;20891;-65
2022/11/26 05:13:34;;;;;;;12.53;5.00;;;;;;;4.86;76.01;100922.20;1764470;80;20911;-65
2022/11/26 05:16:01;;;;;;;11.57;4.60;;;;;;;4.86;76.02;100931.47;1790532;80;21141;-65
2022/11/26 05:18:28;;;;;;;11.65;4.70;;;;;;;4.83;76.02;100931.08;1790525;80;20926;-65
2022/11/26 05:20:54;;;;;;;9.25;4.90;;;;;;;4.84;75.99;100932.20;1781348;80;20927;-64
2022/11/26 05:23:21;;;;;;;11.68;5.35;;;;;;;4.82;75.91;100936.89;1774065;80;21543;-64
2022/11/26 05:25:50;;;;;;;10.98;4.75;;;;;;;4.78;75.90;100938.84;1790768;80;20943;-64
2022/11/26 05:28:16;;;;;;;9.55;5.58;;;;;;;4.74;75.86;100943.75;1790426;80;21788;-65
2022/11/26 05:30:43;;;;;;;9.30;5.45;;;;;;;4.72;75.72;100943.13;1790668;80;20906;-64
2022/11/26 05:33:10;;;;;;;11.28;6.28;;;;;;;4.69;75.84;100944.88;1789820;80;20975;-64
2022/11/26 05:35:36;;;;;;;11.55;5.97;;;;;;;4.72;75.91;100947.11;1790798;80;20982;-65
2022/11/26 05:38:04;;;;;;;12.90;6.97;;;;;;;4.73;75.96;100942.10;1778652;80;21041;-65
2022/11/26 05:40:31;;;;;;;11.50;6.03;;;;;;;4.75;75.93;100948.02;1763106;80;21133;-65
2022/11/26 05:42:58;;;;;;;9.13;5.15;;;;;;;4.73;75.83;100943.94;1790425;79;20931;-64
2022/11/26 05:45:24;;;;;;;9.50;4.80;;;;;;;4.66;75.74;100944.77;1790564;80;21386;-65
2022/11/26 05:47:51;;;;;;;8.13;4.37;;;;;;;4.62;75.76;100948.86;1790337;80;21073;-65
2022/11/26 05:50:18;;;;;;;10.03;4.50;;;;;;;4.58;75.71;100943.69;1790572;80;21045;-65
2022/11/26 05:52:46;;;;;;;7.45;4.50;;;;;;;4.55;75.67;100948.58;1790562;80;22058;-65
2022/11/26 05:55:15;;;;;;;9.88;4.55;;;;;;;4.51;75.73;100947.35;1776427;79;21002;-64
2022/11/26 05:57:41;;;;;;;7.47;4.20;;;;;;;4.50;75.86;100951.02;1759345;81;21556;-64
2022/11/26 06:00:11;;;;;;;8.43;4.90;;;;;;;4.46;75.88;100953.27;1782820;80;20982;-65
2022/11/26 06:02:38;;;;;;;7.08;4.35;;;;;;;4.44;75.95;100959.27;1790474;80;21030;-65
2022/11/26 06:05:07;;;;;;;8.35;4.78;;;;;;;4.41;76.03;100959.20;1790270;80;21146;-65
2022/11/26 06:07:35;;;;;;;7.58;4.30;;;;;;;4.40;76.15;100962.84;1788301;80;21148;-65
2022/11/26 06:10:02;;;;;;;9.25;4.40;;;;;;;4.39;76.21;100963.06;1765966;80;21042;-65
2022/11/26 06:12:29;;;;;;;8.08;4.70;;;;;;;4.42;76.31;100970.06;1762980;80;21054;-65
2022/11/26 06:14:55;;;;;;;7.67;4.50;;;;;;;4.44;76.40;100975.97;1788318;80;20983;-66
2022/11/26 06:17:22;;;;;;;9.95;4.40;;;;;;;4.51;76.48;100983.90;1789598;80;21287;-65
2022/11/26 06:19:48;;;;;;;7.75;4.65;;;;;;;4.56;76.50;100987.23;1790013;80;21101;-66
2022/11/26 06:22:16;;;;;;;7.40;4.55;;;;;;;4.59;76.46;100987.63;1789717;80;20971;-67
2022/11/26 06:24:43;;;;;;;10.60;5.10;;;;;;;4.60;76.41;100988.44;1788212;80;21061;-66
2022/11/26 06:27:10;;;;;;;9.10;4.75;;;;;;;4.62;76.44;100993.03;1788067;80;21078;-66
2022/11/26 06:29:36;;;;;;;9.50;4.90;;;;;;;4.65;76.41;100991.30;1770925;80;21398;-65
2022/11/26 06:32:04;;;;;;;10.20;5.20;;;;;;;4.72;76.28;100988.63;1767319;80;21027;-66
2022/11/26 06:34:31;;;;;;;12.58;5.45;;;;;;;4.71;76.13;100993.12;1790020;80;21075;-66
2022/11/26 06:36:57;;;;;;;8.68;4.90;;;;;;;4.69;76.07;100988.53;1789525;80;21117;-66
2022/11/26 06:39:24;;;;;;;9.75;5.03;;;;;;;4.70;76.02;100994.95;1780221;80;21057;-66
2022/11/26 06:41:51;;;;;;;10.82;4.72;;;;;;;4.69;76.09;100985.88;1718870;82;21195;-65
2022/11/26 06:44:18;;;;;;;10.60;5.20;;;;;;;4.69;76.08;100984.56;1742337;82;21070;-64
2022/11/26 06:46:44;;;;;;;12.85;5.67;;;;;;;4.67;76.04;100983.46;1727422;82;21071;-65
2022/11/26 06:49:11;;;;;;;15.05;5.28;;;;;;;4.64;76.03;100991.81;1722085;83;21071;-65
2022/11/26 06:51:39;;;;;;;12.13;6.12;;;;;;;4.64;76.03;101001.55;1747044;82;21047;-66
2022/11/26 06:54:06;;;;;;;11.25;5.95;;;;;;;4.62;76.02;101006.26;1725585;83;21486;-65
2022/11/26 06:56:34;;;;;;;9.88;5.70;;;;;;;4.64;76.06;101001.07;1720782;83;21581;-65
2022/11/26 06:59:01;;;;;;;10.08;5.40;;;;;;;4.67;76.12;101003.30;1771161;80;21054;-65
2022/11/26 07:01:28;;;;;;;10.85;5.42;;;;;;;4.70;75.99;101006.02;1720118;83;21157;-65
2022/11/26 07:03:54;;;;;;;12.70;5.83;;;;;;;4.73;76.04;101004.80;1704392;83;21498;-65
2022/11/26 07:06:26;;;;;;;10.88;5.55;;;;;;;4.73;75.97;101009.58;1709989;83;21247;-65
2022/11/26 07:08:55;;;;;;;16.45;6.03;;;;;;;4.72;75.96;101007.97;1725384;82;21004;-65
2022/11/26 07:11:22;;;;;;;10.48;5.92;;;;;;;4.74;75.97;101015.20;1733909;82;21016;-65
2022/11/26 07:13:49;;;;;;;11.78;6.60;;;;;;;4.70;75.88;101014.80;1733962;82;21515;-65
2022/11/26 07:16:15;;;;;;;15.58;6.85;;;;;;;4.72;75.91;101021.20;1733901;82;21438;-66
2022/11/26 07:18:42;;;;;;;12.82;6.30;;;;;;;4.74;75.92;101023.14;1733571;82;21130;-67
2022/11/26 07:21:11;;;;;;;14.78;6.80;;;;;;;4.75;75.88;101023.95;1725933;82;20955;-66
2022/11/26 07:23:39;;;;;;;16.67;6.53;;;;;;;4.75;75.88;101031.88;1704761;83;21010;-67
2022/11/26 07:26:07;;;;;;;14.07;6.67;;;;;;;4.76;75.87;101032.98;1705970;82;20955;-67
2022/11/26 07:28:34;;;;;;;21.07;6.55;;;;;;;4.80;75.93;101038.16;1733965;82;21561;-66
2022/11/26 07:31:09;;;;;;;14.85;6.80;;;;;;;4.81;75.86;101026.58;1734063;82;21026;-67
2022/11/26 07:33:36;;;;;;;24.37;7.50;;;;;;;4.80;75.75;101034.70;1704354;83;20964;-67
2022/11/26 07:36:05;;;;;;;23.60;7.75;;;;;;;4.77;75.69;101025.38;1717101;82;20972;-67
2022/11/26 07:38:33;;;;;;;19.87;8.10;;;;;;;4.75;75.64;101028.72;1719714;82;21043;-66
2022/11/26 07:41:05;;;;;;;20.00;7.70;;;;;;;4.74;75.65;101020.97;1705068;84;21473;-66
2022/11/26 07:43:37;;;;;;;20.40;7.78;;;;;;;4.76;75.70;101018.43;1713951;82;21772;-67
2022/11/26 07:46:07;;;;;;;18.42;7.53;;;;;;;4.78;75.73;101030.96;1733661;82;21431;-67
2022/11/26 07:48:35;;;;;;;15.28;6.85;;;;;;;4.81;75.75;101026.58;1733708;82;21015;-67
2022/11/26 07:51:01;;;;;;;11.08;7.62;;;;;;;4.82;75.72;101030.84;1726557;82;20980;-67
2022/11/26 07:53:31;;;;;;;12.75;7.05;;;;;;;4.82;75.64;101028.71;1710824;82;21061;-66
2022/11/26 07:55:58;;;;;;;10.88;6.20;;;;;;;4.83;75.67;101029.00;1729142;82;21550;-65
2022/11/26 07:58:28;;;;;;;9.65;6.62;;;;;;;4.83;75.64;101033.78;1704570;81;20983;-66
2022/11/26 08:00:55;;;;;;;9.48;6.03;;;;;;;4.87;75.67;101036.83;1706783;81;20960;-66
2022/11/26 08:03:21;;;;;;;10.55;6.70;;;;;;;4.92;75.67;101039.16;1732556;81;21062;-66
2022/11/26 08:05:48;;;;;;;11.40;7.22;;;;;;;4.94;75.59;101039.78;1731515;81;21122;-67
2022/11/26 08:08:24;;;;;;;11.18;7.53;;;;;;;4.98;75.56;101044.66;1714141;81;9999938;-65
2022/11/26 08:10:50;;;;;;;11.13;6.80;;;;;;;5.00;75.97;101051.86;1489192;82;10000107;-66
2022/11/26 08:13:17;;;;;;;10.27;6.63;;;;;;;5.02;75.52;101051.16;1731132;82;25864;-67
2022/11/26 08:15:48;;;;;;;8.68;6.28;;;;;;;5.03;75.52;101051.45;1726653;82;21329;-69
2022/11/26 08:18:15;;;;;;;8.83;5.95;;;;;;;5.03;75.40;101056.23;1731573;82;21118;-67
2022/11/26 08:20:41;;;;;;;9.35;5.90;;;;;;;5.03;75.31;101048.80;1725223;82;21576;-66
2022/11/26 08:23:08;;;;;;;9.85;6.28;;;;;;;5.02;75.21;101056.45;1729856;82;21160;-68
2022/11/26 08:25:35;;;;;;;10.48;5.80;;;;;;;4.99;75.15;101051.57;1719575;82;21003;-65
2022/11/26 08:28:02;;;;;;;9.78;6.45;;;;;;;4.95;75.05;101055.14;1720398;82;21166;-65
2022/11/26 08:30:28;;;;;;;10.10;6.35;;;;;;;4.92;75.04;101057.69;1731451;82;21047;-66
2022/11/26 08:32:55;;;;;;;10.28;6.35;;;;;;;4.92;75.05;101054.23;1722690;82;21469;-66
2022/11/26 08:35:23;;;;;;;10.60;6.75;;;;;;;4.93;75.10;101059.30;1725082;82;21105;-65
2022/11/26 08:37:50;;;;;;;10.00;6.40;;;;;;;4.93;75.12;101063.80;1718672;82;21011;-65
2022/11/26 08:40:17;;;;;;;11.43;6.80;;;;;;;4.92;75.10;101060.34;1723009;82;21159;-66
2022/11/26 08:42:45;;;;;;;9.78;6.05;;;;;;;4.97;75.18;101060.22;1733521;82;20940;-65
2022/11/26 08:45:13;;;;;;;9.20;5.78;;;;;;;4.97;75.14;101065.52;1713704;82;21059;-65
2022/11/26 08:47:40;;;;;;;8.88;5.47;;;;;;;4.96;75.10;101066.55;1708179;82;21082;-65
2022/11/26 08:50:09;;;;;;;10.30;6.28;;;;;;;4.92;75.08;101072.25;1704731;84;21438;-65
2022/11/26 08:52:35;;;;;;;9.10;5.90;;;;;;;4.90;75.07;101062.88;1486475;81;10000196;-65
2022/11/26 08:55:03;;;;;;;10.53;6.17;;;;;;;4.89;75.12;101067.36;1728535;82;25968;-68
2022/11/26 08:57:29;;;;;;;9.80;5.87;;;;;;;4.90;75.13;101065.05;1732224;82;21090;-66
2022/11/26 08:59:56;;;;;;;8.50;5.42;;;;;;;4.91;75.15;101066.66;1731458;82;21100;-66
2022/11/26 09:02:23;;;;;;;9.55;5.95;;;;;;;4.94;75.27;101072.87;1723229;81;21114;-67
2022/11/26 09:04:49;;;;;;;10.53;6.22;;;;;;;4.97;75.25;101061.55;1728512;82;21017;-66
2022/11/26 09:07:16;;;;;;;10.95;6.45;;;;;;;4.97;75.25;101067.67;1729397;82;21250;-66
2022/11/26 09:09:43;;;;;;;11.33;6.50;;;;;;;4.97;75.25;101075.62;1725195;82;21185;-65
2022/11/26 09:12:10;;;;;;;10.80;5.78;;;;;;;4.98;75.27;101075.11;1731525;82;21491;-67
2022/11/26 09:14:38;;;;;;;10.03;6.08;;;;;;;4.99;75.32;101078.05;1728435;82;21059;-66
2022/11/26 09:17:06;;;;;;;11.80;6.78;;;;;;;5.00;75.32;101084.95;1729500;82;21059;-67
2022/11/26 09:19:33;;;;;;;10.55;6.87;;;;;;;5.03;75.37;101079.25;1730929;82;21106;-67
2022/11/26 09:21:59;;;;;;;13.20;6.60;;;;;;;5.06;75.37;101087.59;1731827;82;21127;-66
2022/11/26 09:24:26;;;;;;;11.12;6.40;;;;;;;5.16;75.14;101089.30;1733203;82;21066;-67
2022/11/26 09:26:53;;;;;;;11.57;7.17;;;;;;;5.21;74.87;101088.69;1733979;82;21047;-67
2022/11/26 09:29:21;;;;;;;10.63;6.40;;;;;;;5.24;74.87;101088.79;1733422;82;20988;-67
2022/11/26 09:31:48;;;;;;;10.03;5.85;;;;;;;5.28;74.78;101090.80;1730944;81;20937;-67
2022/11/26 09:34:15;;;;;;;10.60;6.20;;;;;;;5.32;74.72;101092.00;1734272;82;21566;-66
2022/11/26 09:36:41;;;;;;;10.53;6.05;;;;;;;5.32;74.53;101097.81;1723223;82;21050;-66
2022/11/26 09:39:08;;;;;;;10.60;5.85;;;;;;;5.28;74.35;101089.47;1728058;82;21023;-66
2022/11/26 09:41:53;;;;;;;11.03;6.10;;;;;;;5.27;74.34;101089.70;1716573;82;21082;-65
2022/11/26 09:44:34;;;;;;;11.30;6.33;;;;;;;5.26;74.39;101091.51;1734214;82;20999;-65
2022/11/26 09:47:18;;;;;;;12.25;6.58;;;;;;;5.18;74.68;101101.02;1733291;81;21204;-67
2022/11/26 09:50:12;;;;;;;9.75;5.65;;;;;;;5.15;74.69;101102.75;1691588;83;21424;-65
2022/11/26 09:52:53;;;;;;;10.88;6.20;;;;;;;5.12;74.69;101100.52;1710972;82;20984;-66
2022/11/26 09:55:29;;;;;;;11.43;6.55;;;;;;;5.10;74.78;101103.39;1704924;84;21003;-66
2022/11/26 09:58:27;;;;;;;11.93;5.97;;;;;;;5.10;74.81;101113.14;1722863;82;21063;-66
2022/11/26 10:00:57;;;;;;;10.60;6.33;;;;;;;5.07;74.76;101110.42;1722876;82;21166;-65
2022/11/26 10:03:33;;;;;;;11.35;6.40;;;;;;;5.02;74.73;101110.73;1733841;82;21007;-65
2022/11/26 10:06:09;;;;;;;11.80;6.20;;;;;;;4.98;74.86;101115.63;1719436;82;20987;-66
2022/11/26 10:09:14;;;;;;;11.38;6.50;;;;;;;4.99;75.02;101117.23;1724569;82;21238;-65
2022/11/26 10:12:04;;;;;;;10.60;5.62;;;;;;;5.04;75.04;101114.80;1733141;82;21066;-65
2022/11/26 10:15:02;;;;;;;10.85;6.45;;;;;;;5.01;75.06;101118.37;1707853;82;21190;-65
2022/11/26 10:18:04;;;;;;;12.68;7.30;;;;;;;5.02;75.08;101122.13;1748686;82;21011;-66
2022/11/26 10:20:54;;;;;;;11.97;7.33;;;;;;;5.07;75.20;101118.87;1697051;84;21558;-67
2022/11/26 10:23:38;;;;;;;12.68;6.72;;;;;;;5.12;75.15;101123.03;1725126;83;21082;-65
2022/11/26 10:26:19;;;;;;;10.08;6.28;;;;;;;5.14;75.09;101127.62;1725795;82;21090;-66
2022/11/26 10:28:53;;;;;;;9.25;5.87;;;;;;;5.10;74.84;101133.84;1726182;82;21308;-65
2022/11/26 10:31:25;;;;;;;11.10;7.10;;;;;;;5.05;74.75;101128.33;1725768;82;21002;-65
2022/11/26 10:34:00;;;;;;;11.28;6.92;;;;;;;5.03;74.69;101136.17;1715564;82;21019;-66
2022/11/26 10:36:40;;;;;;;11.33;7.25;;;;;;;5.00;74.65;101132.13;1696958;84;21490;-66
2022/11/26 10:39:11;;;;;;;10.05;6.62;;;;;;;4.98;74.69;101124.08;1710527;83;21505;-65
2022/11/26 10:41:39;;;;;;;11.78;7.15;;;;;;;4.99;74.69;101128.34;1701331;83;21008;-66
2022/11/26 10:44:38;;;;;;;10.20;6.58;;;;;;;5.00;74.74;101128.64;1720698;82;20960;-66
2022/11/26 10:47:28;;;;;;;9.63;6.70;;;;;;;5.02;74.73;101131.39;1722178;81;21131;-66
2022/11/26 10:50:06;;;;;;;10.03;6.28;;;;;;;5.05;74.76;101135.47;1728120;82;21043;-67
2022/11/26 10:52:33;;;;;;;8.98;6.00;;;;;;;5.07;74.78;101134.25;1727070;82;20988;-67
2022/11/26 10:55:24;;;;;;;10.78;6.22;;;;;;;5.08;74.58;101135.87;1732718;82;21254;-66
2022/11/26 10:57:54;;;;;;;11.75;6.45;;;;;;;5.04;74.48;101139.14;1731742;82;21095;-67
2022/11/26 11:00:45;;;;;;;9.03;5.67;;;;;;;5.00;74.43;101144.04;1734579;82;20987;-65
2022/11/26 11:03:25;;;;;;;9.55;6.05;;;;;;;5.01;74.42;101149.63;1699908;83;21554;-66
2022/11/26 11:05:54;;;;;;;9.98;5.85;;;;;;;4.98;74.29;101149.23;1710389;83;20961;-66
2022/11/26 11:08:30;;;;;;;9.83;5.28;;;;;;;4.96;74.28;101150.73;1686547;83;21317;-66
2022/11/26 14:10:44;;;;;;;9.93;7.40;;;;;;;4.11;85.99;101290.58;1755545;80;22631;-71
2022/11/26 14:13:11;;;;;;;11.35;7.80;;;;;;;4.16;85.11;101299.26;1770232;80;21070;-71
2022/11/26 14:15:51;;;;;;;10.28;7.05;;;;;;;4.20;84.41;101301.81;1762419;80;21160;-71
2022/11/26 14:18:17;;;;;;;9.80;7.08;;;;;;;4.25;83.88;101301.24;1752287;80;21604;-71
2022/11/26 14:21:05;;;;;;;11.33;7.50;;;;;;;4.26;83.21;101311.61;1690645;81;20945;-71
2022/11/26 14:23:45;;;;;;;9.58;7.45;;;;;;;4.28;82.79;101313.56;1764997;80;21127;-71
2022/11/26 14:26:36;;;;;;;11.12;7.65;;;;;;;4.33;82.38;101312.95;1722142;82;21031;-72
2022/11/26 14:29:16;;;;;;;11.43;7.90;;;;;;;4.36;81.91;101312.56;1720079;83;21187;-70
2022/11/26 14:31:52;;;;;;;11.43;7.17;;;;;;;4.39;81.46;101312.98;1722046;82;21026;-72
2022/11/26 14:34:39;;;;;;;12.13;7.85;;;;;;;4.43;81.16;101307.60;1748482;81;20900;-70
2022/11/26 14:37:15;;;;;;;9.53;6.45;;;;;;;4.50;80.89;101315.56;1739077;80;21133;-71
2022/11/26 14:39:41;;;;;;;10.88;6.78;;;;;;;4.55;80.49;101321.60;1741032;80;21035;-70
2022/11/26 14:42:16;;;;;;;10.32;7.30;;;;;;;4.55;80.12;101322.41;1744379;80;21579;-71
2022/11/26 14:44:42;;;;;;;11.75;6.92;;;;;;;4.59;79.87;101314.89;1742844;81;21062;-71
2022/11/26 14:47:18;;;;;;;9.05;6.53;;;;;;;4.58;79.48;101315.41;1742980;81;21059;-71
2022/11/26 14:50:02;;;;;;;10.38;6.67;;;;;;;4.58;79.04;101319.38;1734476;82;21105;-71
2022/11/26 14:52:36;;;;;;;9.88;6.45;;;;;;;4.55;78.63;101320.28;1722064;82;21062;-71
2022/11/26 14:55:06;;;;;;;8.98;6.60;;;;;;;4.49;78.35;101311.81;1738975;81;21879;-71
2022/11/26 14:57:45;;;;;;;10.00;7.03;;;;;;;4.47;78.15;101314.63;1746172;81;21530;-71
2022/11/26 15:00:17;;;;;;;9.60;6.95;;;;;;;4.46;78.08;101315.14;1727631;82;21036;-71
2022/11/26 15:02:46;;;;;;;;;;;;;;;4.49;77.97;101319.23;1717598;82;21079;-70
2022/11/26 15:05:23;;;;;;;10.25;6.75;;;;;;;4.51;77.81;101320.34;1713906;81;20192;-73
2022/11/26 15:08:05;;;;;;;11.08;7.60;;;;;;;4.52;77.67;101318.03;1733809;82;21157;-71
2022/11/26 15:10:47;;;;;;;8.98;6.33;;;;;;;4.51;77.51;101313.73;1696486;83;20999;-71
2022/11/26 15:13:26;;;;;;;9.45;6.65;;;;;;;4.51;77.28;101320.34;1731412;82;21260;-70
2022/11/26 15:15:56;;;;;;;9.25;6.70;;;;;;;4.45;77.10;101310.88;1732788;82;21113;-71
2022/11/26 15:18:28;;;;;;;10.53;6.80;;;;;;;4.44;77.00;101311.90;1718539;82;21115;-71
2022/11/26 15:20:55;;;;;;;10.15;6.65;;;;;;;4.42;76.88;101315.75;1713703;82;21461;-71
2022/11/26 15:23:32;;;;;;;9.45;6.20;;;;;;;4.41;76.84;101318.09;1708114;82;21096;-71
2022/11/26 15:25:59;;;;;;;8.73;6.42;;;;;;;4.40;76.78;101321.22;1707814;82;21034;-71